KIPJ

Lincolnton-Lincoln County Regional Airport

Lincolnton, North Carolina, USA
METAR KIPJ 201955Z AUTO 23004KT 10SM SCT033 BKN060 30/21 A3002 RMK AO2 T03000206
Observed Flight Rules
Aug-20 @ 19:55 UTC (35 minutes ago) Visual Flight Rules
Wind Visibility Clouds
230° at 4 knots 10 miles
  • Scattered at 3,300' AGL
  • Broken at 6,000' AGL
Temperatures Readings
Current 30°C / 86°F
Dewpoint 21°C / 70°F
Humidity 59%
Altimeter 30.02" Hg
Pressure 1017 hPa
Elevation 267
METAR KIPJ 201955Z AUTO 23004KT 10SM SCT033 BKN060 30/21 A3002 RMK AO2 T03000206
Observed Flight Rules
Aug-20 @ 19:55 UTC
(35 minutes ago)
VFR
Wind Visibility
230° at 4 knots 10 miles
Clouds
  • Scattered at 3,300' AGL
  • Broken at 6,000' AGL
Temperature Dewpoint
30°C / 86°F 21°C / 70°F
Humidity Altimeter Pressure
59% 30.02" Hg 1017 hPa